»·PEaware :: AAL576 KSLC-KLAS

AAL576 :: KSLC-KLAS

FLIGHT INFORMATION

Flight Status: Arrived
Operator:
American Airlines
More flights by this operator :: More flights under this callsign
Pilot: Anonymous 8274 (8274)
Aircraft: BOEING 737-300
(B733)
More flights by this aircraft type
Origin: KSLC Salt Lake City Intl
United States
Destination: KLAS McCarran Intl
United States
More flights between these airports :: More routes between these airports
Route: ZIONZ1 EHK MPIRE SITEE4
File this flight plan on PilotEdge
Remarks:
Altitude:
(Current/Filed)
31,000ft
Speed:
(Current/Filed)
460kts
Departed: 20-Oct-20 02:28 PM
Arrived: 20-Oct-20 03:24 PM
Distance/Time
Traveled:
319nm/0:56
Distance/Time
To Go:
Arrived

Flight Plot

Page will automatically refresh every two minutes.

Flight plan parsing failed; only flown route is shown


Map Options




Map Legend


Flown Route
Filed Route
Departure Airport
Arrival Airport
Navaid (VOR, NDB)
Fix

Horizontal Profiles

Position Reports

Time Latitude Longitude Heading Altitude Ground
Speed
20-Oct-20 13:49 40.784910 -111.978982 0 4234ft 0kts
20-Oct-20 13:50 40.784910 -111.978982 0 4234ft 0kts
20-Oct-20 13:51 40.784910 -111.978982 0 4234ft 0kts
20-Oct-20 13:52 40.784910 -111.978982 0 4234ft 0kts
20-Oct-20 13:53 40.784910 -111.978982 0 4234ft 0kts
20-Oct-20 13:54 40.784910 -111.978982 0 4234ft 0kts
20-Oct-20 13:55 40.784910 -111.978982 0 4234ft 0kts
20-Oct-20 13:56 40.784910 -111.978982 0 4234ft 0kts
20-Oct-20 13:57 40.784910 -111.978982 0 4234ft 0kts
20-Oct-20 13:58 40.784910 -111.978982 0 4234ft 0kts
20-Oct-20 13:59 40.784910 -111.978982 0 4234ft 0kts
20-Oct-20 14:00 40.784910 -111.978982 0 4234ft 0kts
20-Oct-20 14:01 40.784910 -111.978982 0 4234ft 0kts
20-Oct-20 14:02 40.784910 -111.978982 0 4234ft 0kts
20-Oct-20 14:03 40.784910 -111.978982 0 4234ft 0kts
20-Oct-20 14:04 40.784910 -111.978982 0 4234ft 0kts
20-Oct-20 14:05 40.784910 -111.978982 0 4234ft 0kts
20-Oct-20 14:06 40.784910 -111.978982 360 4234ft 0kts
20-Oct-20 14:07 40.784910 -111.978982 360 4234ft 0kts
20-Oct-20 14:08 40.784910 -111.978982 360 4234ft 0kts
20-Oct-20 14:09 40.784910 -111.978982 360 4234ft 0kts
20-Oct-20 14:10 40.784910 -111.978982 360 4234ft 0kts
20-Oct-20 14:12 40.784910 -111.978982 360 4234ft 0kts
20-Oct-20 14:13 40.784638 -111.978982 0 4234ft 2kts
20-Oct-20 14:14 40.784090 -111.978782 306 4234ft 2kts
20-Oct-20 14:15 40.784021 -111.978391 83 4234ft 2kts
20-Oct-20 14:16 40.784058 -111.977775 84 4234ft 0kts
20-Oct-20 14:17 40.784058 -111.977775 84 4234ft 0kts
20-Oct-20 14:18 40.784058 -111.977775 84 4234ft 0kts
20-Oct-20 14:19 40.784058 -111.977775 84 4234ft 0kts
20-Oct-20 14:20 40.784220 -111.976647 53 4234ft 7kts
20-Oct-20 14:21 40.788852 -111.976957 354 4234ft 30kts
20-Oct-20 14:22 40.798639 -111.978087 354 4234ft 34kts
20-Oct-20 14:23 40.807045 -111.978537 29 4234ft 0kts
20-Oct-20 14:24 40.807045 -111.978537 28 4234ft 0kts
20-Oct-20 14:25 40.807045 -111.978537 28 4234ft 0kts
20-Oct-20 14:26 40.807045 -111.978537 28 4234ft 0kts
20-Oct-20 14:26 40.807185 -111.978445 30 4234ft 3kts
20-Oct-20 14:28 40.804264 -111.976575 175 4234ft 66kts
20-Oct-20 14:28 40.770516 -111.971959 171 5300ft 175kts
20-Oct-20 14:30 40.705411 -111.958859 171 7399ft 239kts
20-Oct-20 14:30 40.648023 -111.946398 171 9263ft 275kts
20-Oct-20 14:31 40.562092 -111.945310 185 10393ft 350kts
20-Oct-20 14:32 40.459678 -111.951838 183 12198ft 375kts
20-Oct-20 14:33 40.354131 -111.944662 180 13796ft 384kts
20-Oct-20 14:34 40.245825 -111.941780 191 16266ft 392kts
20-Oct-20 14:35 40.136122 -111.959627 191 18571ft 404kts
20-Oct-20 14:36 40.022887 -111.976294 191 20770ft 414kts
20-Oct-20 14:37 39.907236 -111.993206 192 22761ft 423kts
20-Oct-20 14:38 39.788814 -112.010399 192 24531ft 433kts
20-Oct-20 14:39 39.667318 -112.028044 192 26016ft 446kts
20-Oct-20 14:40 39.542713 -112.046072 192 27424ft 457kts
20-Oct-20 14:41 39.415064 -112.064374 191 29048ft 460kts
20-Oct-20 14:42 39.288758 -112.082301 191 30745ft 457kts
20-Oct-20 14:43 39.161836 -112.100259 191 31123ft 461kts
20-Oct-20 14:44 39.050535 -112.164576 215 31110ft 442kts
20-Oct-20 14:45 38.943487 -112.243387 214 31108ft 443kts
20-Oct-20 14:46 38.836156 -112.321174 214 31110ft 443kts
20-Oct-20 14:47 38.728708 -112.398914 213 31110ft 444kts
20-Oct-20 14:48 38.621277 -112.476413 213 31110ft 444kts
20-Oct-20 14:49 38.513709 -112.553733 213 31110ft 444kts
20-Oct-20 14:50 38.405913 -112.630954 213 31110ft 444kts
20-Oct-20 14:51 38.300356 -112.706535 212 31142ft 445kts
20-Oct-20 14:52 38.192341 -112.783405 212 31175ft 445kts
20-Oct-20 14:53 38.084504 -112.859863 212 31158ft 444kts
20-Oct-20 14:54 37.976558 -112.936146 211 31130ft 445kts
20-Oct-20 14:55 37.868271 -113.012306 211 31089ft 445kts
20-Oct-20 14:56 37.767125 -113.098128 238 31116ft 435kts
20-Oct-20 14:57 37.701565 -113.227281 237 31121ft 437kts
20-Oct-20 14:58 37.633220 -113.353932 237 31118ft 437kts
20-Oct-20 14:59 37.564613 -113.480423 237 31120ft 437kts
20-Oct-20 15:00 37.462423 -113.560357 206 31123ft 447kts
20-Oct-20 15:01 37.350187 -113.626581 208 31118ft 446kts
20-Oct-20 15:02 37.243385 -113.690611 207 31111ft 447kts
20-Oct-20 15:03 37.131047 -113.757556 207 31017ft 446kts
20-Oct-20 15:04 37.018846 -113.824165 206 27839ft 451kts
20-Oct-20 15:05 36.908371 -113.889519 206 25447ft 429kts
20-Oct-20 15:06 36.803177 -113.951426 206 23173ft 409kts
20-Oct-20 15:07 36.712712 -114.004635 206 21237ft 409kts
20-Oct-20 15:08 36.612320 -114.063510 206 19052ft 391kts
20-Oct-20 15:09 36.539428 -114.155039 238 16945ft 384kts
20-Oct-20 15:10 36.483411 -114.265184 238 14853ft 369kts
20-Oct-20 15:11 36.429184 -114.371076 238 12886ft 365kts
20-Oct-20 15:12 36.376603 -114.473270 238 11930ft 324kts
20-Oct-20 15:13 36.329604 -114.564331 238 10688ft 302kts
20-Oct-20 15:14 36.277347 -114.639362 202 9961ft 280kts
20-Oct-20 15:15 36.205880 -114.670387 199 9829ft 269kts
20-Oct-20 15:16 36.133164 -114.701818 199 8081ft 280kts
20-Oct-20 15:17 36.074509 -114.744883 259 7925ft 246kts
20-Oct-20 15:18 36.073716 -114.827601 270 6977ft 237kts
20-Oct-20 15:19 36.073817 -114.909003 270 5507ft 234kts
20-Oct-20 15:20 36.073872 -114.987121 270 4385ft 216kts
20-Oct-20 15:21 36.073888 -115.055838 270 3326ft 172kts
20-Oct-20 15:22 36.073717 -115.110341 270 2471ft 157kts
20-Oct-20 15:23 36.074052 -115.148901 289 2185ft 29kts
20-Oct-20 15:24 36.074818 -115.150649 306 2185ft 0kts
20-Oct-20 15:25 36.075212 -115.151147 321 2185ft 11kts
20-Oct-20 15:26 36.077557 -115.152619 336 2185ft 0kts
20-Oct-20 15:27 36.078052 -115.151965 85 2185ft 13kts
20-Oct-20 15:28 36.077709 -115.145973 94 2185ft 19kts
20-Oct-20 15:29 36.079060 -115.141577 0 2185ft 16kts
20-Oct-20 15:30 36.081060 -115.140399 135 2185ft 4kts
20-Oct-20 15:31 36.080905 -115.140207 134 2185ft 0kts

Navigation Log

Ident Type
Flight plan parsing failed, navigation log unavailable